Sugar Land, TX

3:49 AM CDT on March 25, 2017 (GMT -0500)
The Hill | | Change Station

Elev 82 ft 29.63 °N, 95.63 °W | Updated 29 seconds ago

Overcast
Overcast
72.5 °F
Feels Like 72.5 °F
N
4.5
Wind Variable Wind from SSE
Gusts 8.0 mph

Today
High -- | Low -- °F
--% Chance of Precip.
Yesterday
High -- | Low -- °F
Precip. -- in
Pressure 29.95 in
Visibility 5.0 miles
Clouds Mostly Cloudy 1400 ft
Overcast 2500 ft
Dew Point 70 °F
Humidity 92%
Rainfall 0.00 in
Snow Depth Not available.
7:19 AM 7:37 PM
Waning Crescent, 9% visible
SPECI KSGR 250827Z AUTO 21011KT 5SM BR BKN014 OVC025 23/21 A2995 RMK AO2 T02280211
Pressure 29.95 in
Visibility 5.0 miles
Clouds Mostly Cloudy 1400 ft
Overcast 2500 ft
Dew Point 70 °F
Humidity 92%
Rainfall 0.00 in
Snow Depth Not available.
7:19 AM 7:37 PM
Waning Crescent, 9% visible
SPECI KSGR 250827Z AUTO 21011KT 5SM BR BKN014 OVC025 23/21 A2995 RMK AO2 T02280211

Get Severe Weather Alerts

Thanks for signing up!

Be on the lookout for a verification email in your inbox.

You'll start receiving the daily forecast at 8 AM.

×

10-Day Weather Forecast

Almanac

Astronomy

Mar. 25, 2017 Rise Set
Actual Time
Civil Twilight
Nautical Twilight
Astronomical Twilight
Moon
Length of Visible Light
Length of Day
Tomorrow will be .
, % of the Moon is Illuminated

Today's Extremes

State Highs State Lows

Community

WunderPhotos

Upload Photos

1,962,540 photos uploaded!

WunderBlog® & News

Nearby

Air Quality

  Air Quality AQ Index Pollutant
Not available.

Snow Depth

Station Depth Elevation

Earthquake Activity

City Distance Mag. Time & Date
Minimum magnitude displayed is 2.5.

Earthquake Activity

City Distance Mag. Time & Date
Minimum magnitude displayed is 2.5.

Coastal Water Temperatures

Place Temperature

Stations

Nearby Weather Stations

Station Location Temp. Windchill Dew Point Humidity Wind Precip. Elev Updated Type
                   

Watches & Warnings

There are currently no watches in effect.